aviador You're here:

YBBN Decoded Metar

BRISBANE in AUSTRALIA
Report Time2018-01-18 21:00:00
UTC Time2018-01-18 21:34:55
Flight Rules vfr VFR
Wind200° at 07 kt
W.Decomp.*RWY 19: 7.0 kt HW 0.1 kt LCW
RWY 14: 4.6 kt HW 5.3 kt RCW
W.Rank200° ranks 2
Current wind is above 200° avg. (6.6)
Visibility9999 m
Phenomena:N/A
Clouds:N/A
Expected CloudBase > 2,000 ft AGL from Temp-Dew spread
CeilingNone
Temp21°C (ISA +6)
Dew Point16°C (73% RH)
AAT20.5°C
QNH1015 hPa
Density Alt896 ft
Elevation16 ft
Report Wrong Elevation
Raw Report
METAR YBBN 182100Z 20007KT CAVOK 21/16 Q1015
FM2300 14008KT CAVOK=

Extra information for YBBN:More info

Metar Taf Metar & Taf Last 4 Metars F.Rules Stats Wind Profile Meteogram Temp Stats Airport Information Weather charts Add Link Nearby VenuesMetar ALERT Operation Metar Decoded Social comments